createdAt,value
2023-04-02T19:32:12.469Z,1024.07
2023-04-02T19:33:12.399Z,1024.08
2023-04-02T19:34:13.094Z,1024.09
2023-04-02T19:35:13.069Z,1024.12
2023-04-02T19:36:12.476Z,1024.14
2023-04-02T19:37:12.374Z,1024.16
2023-04-02T19:38:12.367Z,1024.21
2023-04-02T19:39:13.049Z,1024.19
2023-04-02T19:40:12.361Z,1024.23
2023-04-02T19:41:13.272Z,1024.23
2023-04-02T19:42:13.262Z,1024.22
2023-04-02T19:43:12.996Z,1024.25
2023-04-02T19:44:13.323Z,1024.26
2023-04-02T19:45:12.311Z,1024.31
2023-04-02T19:46:13.265Z,1024.28
2023-04-02T19:47:12.949Z,1024.28
2023-04-02T19:48:12.388Z,1024.29
2023-04-02T19:49:13.218Z,1024.33
2023-04-02T19:50:12.903Z,1024.28
2023-04-02T19:51:13.183Z,1024.32
2023-04-02T19:52:13.170Z,1024.31
2023-04-02T19:53:12.883Z,1024.32
2023-04-02T19:54:12.915Z,1024.38
2023-04-02T19:55:12.848Z,1024.37
2023-04-02T19:56:13.109Z,1024.37
2023-04-02T19:57:12.228Z,1024.42
2023-04-02T19:58:19.289Z,1024.46
2023-04-02T20:00:12.802Z,1024.41
2023-04-02T20:01:12.814Z,1024.46
2023-04-02T20:02:12.101Z,1024.47
2023-04-02T20:03:12.083Z,1024.44
2023-04-02T20:04:12.231Z,1024.46
2023-04-02T20:05:12.109Z,1024.44
2023-04-02T20:06:12.747Z,1024.46
2023-04-02T20:07:12.732Z,1024.48
2023-04-02T20:08:12.722Z,1024.52
2023-04-02T20:09:12.032Z,1024.55
2023-04-02T20:10:12.683Z,1024.54
2023-04-02T20:11:12.695Z,1024.53
2023-04-02T20:12:12.677Z,1024.54
2023-04-02T20:13:11.998Z,1024.53
2023-04-02T20:14:11.986Z,1024.58
2023-04-02T20:15:11.981Z,1024.57
2023-04-02T20:16:12.690Z,1024.60
2023-04-02T20:17:12.626Z,1024.62
2023-04-02T20:18:11.933Z,1024.64
2023-04-02T20:19:11.937Z,1024.61
2023-04-02T20:20:12.587Z,1024.64
2023-04-02T20:21:11.889Z,1024.60
2023-04-02T20:22:12.571Z,1024.64
2023-04-02T20:23:12.560Z,1024.67
2023-04-02T20:24:12.551Z,1024.69
2023-04-02T20:25:11.895Z,1024.71
2023-04-02T20:26:11.849Z,1024.72
2023-04-02T20:27:11.837Z,1024.76
2023-04-02T20:28:11.814Z,1024.73
2023-04-02T20:29:12.493Z,1024.74
2023-04-02T20:30:12.470Z,1024.76
2023-04-02T20:31:13.449Z,1024.77
2023-04-02T20:32:11.769Z,1024.81
2023-04-02T20:33:11.910Z,1024.77
2023-04-02T20:34:12.694Z,1024.83
2023-04-02T20:35:12.419Z,1024.84
2023-04-02T20:36:12.421Z,1024.84
2023-04-02T20:37:11.729Z,1024.83
2023-04-02T20:38:12.431Z,1024.84
2023-04-02T20:39:11.692Z,1024.84
2023-04-02T20:40:11.705Z,1024.87
2023-04-02T20:41:12.367Z,1024.88
2023-04-02T20:42:11.668Z,1024.85
2023-04-02T20:43:11.676Z,1024.86
2023-04-02T20:44:12.338Z,1024.86
2023-04-02T20:45:11.655Z,1024.89
2023-04-02T20:46:12.297Z,1024.94
2023-04-02T20:47:11.617Z,1024.94
2023-04-02T20:48:12.298Z,1024.95
2023-04-02T20:49:11.623Z,1024.95
2023-04-02T20:50:12.254Z,1024.99
2023-04-02T20:51:11.565Z,1024.96
2023-04-02T20:52:12.253Z,1024.99
2023-04-02T20:53:12.244Z,1025.01
2023-04-02T20:54:11.541Z,1025.02
2023-04-02T20:55:11.546Z,1025.06
2023-04-02T20:56:11.522Z,1025.04
2023-04-02T20:57:12.207Z,1025.03
2023-04-02T20:58:11.515Z,1025.03
2023-04-02T20:59:12.172Z,1025.11
2023-04-02T21:00:12.177Z,1025.13
2023-04-02T21:01:12.169Z,1025.08
2023-04-02T21:02:11.448Z,1025.13
2023-04-02T21:03:11.457Z,1025.14
2023-04-02T21:04:11.425Z,1025.19
2023-04-02T21:05:11.486Z,1025.16
2023-04-02T21:06:12.112Z,1025.19
2023-04-02T21:07:12.352Z,1025.24
2023-04-02T21:08:12.074Z,1025.25
2023-04-02T21:09:12.064Z,1025.22
2023-04-02T21:10:12.039Z,1025.28
2023-04-02T21:11:12.325Z,1025.27
2023-04-02T21:12:12.299Z,1025.30
2023-04-02T21:13:12.278Z,1025.25
2023-04-02T21:14:12.779Z,1025.31
2023-04-02T21:15:12.281Z,1025.31
2023-04-02T21:16:12.186Z,1025.31
2023-04-02T21:17:11.980Z,1025.32
2023-04-02T21:18:11.288Z,1025.30
2023-04-02T21:19:11.956Z,1025.31
2023-04-02T21:20:12.506Z,1025.35
2023-04-02T21:21:11.256Z,1025.37
2023-04-02T21:22:11.929Z,1025.37
2023-04-02T21:23:11.223Z,1025.35
2023-04-02T21:24:11.210Z,1025.31
2023-04-02T21:25:11.251Z,1025.32
2023-04-02T21:26:11.883Z,1025.32
2023-04-02T21:27:11.864Z,1025.32
2023-04-02T21:28:11.857Z,1025.36
2023-04-02T21:29:11.172Z,1025.28
2023-04-02T21:30:11.166Z,1025.30
2023-04-02T21:31:11.897Z,1025.30
2023-04-02T21:32:20.929Z,1025.36
2023-04-02T21:33:12.111Z,1025.28
2023-04-02T21:34:11.091Z,1025.34
2023-04-02T21:35:11.760Z,1025.30
2023-04-02T21:36:11.859Z,1025.34
2023-04-02T21:37:11.066Z,1025.38
2023-04-02T21:38:11.742Z,1025.36
2023-04-02T21:39:11.061Z,1025.44
2023-04-02T21:40:11.062Z,1025.40
2023-04-02T21:41:11.034Z,1025.35
2023-04-02T21:42:11.009Z,1025.33
2023-04-02T21:43:11.692Z,1025.35
2023-04-02T21:44:11.682Z,1025.36
2023-04-02T21:45:10.986Z,1025.39
2023-04-02T21:46:10.972Z,1025.47
2023-04-02T21:47:11.098Z,1025.39
2023-04-02T21:48:10.950Z,1025.40
2023-04-02T21:49:11.641Z,1025.45
2023-04-02T21:50:11.599Z,1025.45
2023-04-02T21:51:10.926Z,1025.55
2023-04-02T21:52:10.898Z,1025.50
2023-04-02T21:53:11.581Z,1025.59
2023-04-02T21:54:11.583Z,1025.47
2023-04-02T21:55:10.895Z,1025.51
2023-04-02T21:56:10.888Z,1025.55
2023-04-02T21:57:11.586Z,1025.55
2023-04-02T21:58:10.841Z,1025.57
2023-04-02T21:59:10.849Z,1025.54
2023-04-02T22:00:11.490Z,1025.64
2023-04-02T22:01:23.899Z,1025.57
2023-04-02T22:02:11.791Z,1025.57
2023-04-02T22:03:13.569Z,1025.60
2023-04-02T22:04:12.496Z,1025.59
2023-04-02T22:05:11.424Z,1025.66
2023-04-02T22:06:11.427Z,1025.64
2023-04-02T22:07:10.764Z,1025.69
2023-04-02T22:08:10.735Z,1025.69
2023-04-02T22:09:11.438Z,1025.73
2023-04-02T22:10:10.734Z,1025.71
2023-04-02T22:11:10.716Z,1025.78
2023-04-02T22:12:10.690Z,1025.79
2023-04-02T22:13:11.369Z,1025.75
2023-04-02T22:14:11.358Z,1025.79
2023-04-02T22:15:10.654Z,1025.78
2023-04-02T22:16:10.679Z,1025.77
2023-04-02T22:17:11.323Z,1025.79
2023-04-02T22:18:11.319Z,1025.79
2023-04-02T22:19:11.316Z,1025.82
2023-04-02T22:20:10.615Z,1025.83
2023-04-02T22:21:11.268Z,1025.85
2023-04-02T22:22:11.277Z,1025.86
2023-04-02T22:23:10.574Z,1025.87
2023-04-02T22:24:11.248Z,1025.87
2023-04-02T22:25:10.562Z,1025.94
2023-04-02T22:26:10.550Z,1025.91
2023-04-02T22:27:10.532Z,1025.94
2023-04-02T22:28:10.520Z,1025.98
2023-04-02T22:29:11.201Z,1025.98
2023-04-02T22:30:10.523Z,1025.99
2023-04-02T22:31:10.516Z,1026.01
2023-04-02T22:32:10.460Z,1026.10
2023-04-02T22:33:10.510Z,1025.99
2023-04-02T22:34:11.147Z,1026.07
2023-04-02T22:35:10.452Z,1026.10
2023-04-02T22:36:10.502Z,1026.11
2023-04-02T22:37:10.431Z,1026.07
2023-04-02T22:38:11.101Z,1026.15
2023-04-02T22:39:10.461Z,1026.19
2023-04-02T22:40:10.390Z,1026.14
2023-04-02T22:41:11.055Z,1026.16
2023-04-02T22:42:11.065Z,1026.13
2023-04-02T22:43:10.392Z,1026.15
2023-04-02T22:44:11.032Z,1026.12
2023-04-02T22:45:10.340Z,1026.19
2023-04-02T22:46:10.369Z,1026.21
2023-04-02T22:47:11.006Z,1026.14
2023-04-02T22:48:10.324Z,1026.26
2023-04-02T22:49:10.991Z,1026.23
2023-04-02T22:50:10.277Z,1026.27
2023-04-02T22:51:10.288Z,1026.23
2023-04-02T22:52:10.260Z,1026.27
2023-04-02T22:53:10.943Z,1026.25
2023-04-02T22:54:10.940Z,1026.31
2023-04-02T22:55:10.922Z,1026.32
2023-04-02T22:56:10.241Z,1026.35
2023-04-02T22:57:10.252Z,1026.34
2023-04-02T22:58:10.225Z,1026.29
2023-04-02T22:59:10.903Z,1026.36
2023-04-02T23:00:10.861Z,1026.37
2023-04-02T23:01:10.204Z,1026.38
2023-04-02T23:02:10.152Z,1026.38
2023-04-02T23:03:10.836Z,1026.40
2023-04-02T23:04:10.825Z,1026.41
2023-04-02T23:05:11.096Z,1026.43
2023-04-02T23:06:10.798Z,1026.46
2023-04-02T23:07:10.130Z,1026.50
2023-04-02T23:08:11.045Z,1026.47
2023-04-02T23:09:10.770Z,1026.51
2023-04-02T23:10:10.757Z,1026.53
2023-04-02T23:11:10.071Z,1026.52
2023-04-02T23:12:10.736Z,1026.51
2023-04-02T23:13:11.975Z,1026.48
2023-04-02T23:14:10.015Z,1026.55
2023-04-02T23:15:10.704Z,1026.59
2023-04-02T23:16:10.740Z,1026.58
2023-04-02T23:17:09.986Z,1026.56
2023-04-02T23:18:09.988Z,1026.58
2023-04-02T23:19:10.671Z,1026.57
2023-04-02T23:20:09.977Z,1026.64
2023-04-02T23:21:09.979Z,1026.60
2023-04-02T23:22:09.941Z,1026.59
2023-04-02T23:23:10.617Z,1026.59
2023-04-02T23:24:10.611Z,1026.60
2023-04-02T23:25:09.910Z,1026.59
2023-04-02T23:26:09.950Z,1026.59
2023-04-02T23:27:09.892Z,1026.60
2023-04-02T23:28:09.911Z,1026.57
2023-04-02T23:29:09.847Z,1026.57
2023-04-02T23:30:10.538Z,1026.61
2023-04-02T23:31:09.861Z,1026.61
2023-04-02T23:32:09.822Z,1026.60
2023-04-02T23:33:10.521Z,1026.60
2023-04-02T23:34:10.502Z,1026.63
2023-04-02T23:35:10.489Z,1026.62
2023-04-02T23:36:10.522Z,1026.65
2023-04-02T23:37:09.783Z,1026.63
2023-04-02T23:38:09.816Z,1026.59
2023-04-02T23:39:10.451Z,1026.60
2023-04-02T23:40:10.442Z,1026.60
2023-04-02T23:41:10.407Z,1026.60
2023-04-02T23:42:11.168Z,1026.62
2023-04-02T23:43:10.399Z,1026.60
2023-04-02T23:44:10.415Z,1026.61
2023-04-02T23:45:09.702Z,1026.59
2023-04-02T23:46:10.411Z,1026.64
2023-04-02T23:47:10.426Z,1026.61
2023-04-02T23:48:09.675Z,1026.66
2023-04-02T23:49:09.658Z,1026.65
2023-04-02T23:50:09.653Z,1026.68
2023-04-02T23:51:09.657Z,1026.62
2023-04-02T23:52:10.311Z,1026.64
2023-04-02T23:53:10.309Z,1026.62
2023-04-02T23:54:10.305Z,1026.68
2023-04-02T23:55:10.286Z,1026.70
2023-04-02T23:56:10.253Z,1026.65
2023-04-02T23:57:10.293Z,1026.70
2023-04-02T23:58:10.244Z,1026.71
2023-04-02T23:59:10.236Z,1026.72
